createdAt,value
2018-08-22T00:02:20.644Z,4.00
2018-08-22T00:04:46.975Z,4.37
2018-08-22T00:07:13.307Z,3.60
2018-08-22T00:09:39.656Z,3.73
2018-08-22T00:12:06.017Z,3.70
2018-08-22T00:14:32.363Z,3.97
2018-08-22T00:16:58.717Z,3.70
2018-08-22T00:19:25.056Z,4.27
2018-08-22T00:21:51.370Z,4.00
2018-08-22T00:24:17.932Z,3.90
2018-08-22T00:26:44.306Z,4.20
2018-08-22T00:29:10.771Z,3.67
2018-08-22T00:31:37.048Z,3.47
2018-08-22T00:34:03.455Z,3.80
2018-08-22T00:36:29.845Z,3.77
2018-08-22T00:38:56.226Z,3.90
2018-08-22T00:41:22.652Z,4.00
2018-08-22T00:43:49.034Z,4.13
2018-08-22T00:46:15.448Z,3.83
2018-08-22T00:48:41.848Z,3.50
2018-08-22T00:51:08.182Z,4.90
2018-08-22T00:53:34.567Z,4.07
2018-08-22T00:56:00.968Z,3.50
2018-08-22T00:58:27.302Z,3.97
2018-08-22T01:00:53.648Z,3.90
2018-08-22T01:03:20.206Z,3.50
2018-08-22T01:05:46.567Z,3.70
2018-08-22T01:08:12.897Z,3.87
2018-08-22T01:10:39.222Z,4.20
2018-08-22T01:13:05.575Z,3.50
2018-08-22T01:15:31.938Z,3.50
2018-08-22T01:17:58.298Z,3.83
2018-08-22T01:20:24.613Z,3.80
2018-08-22T01:22:50.986Z,3.77
2018-08-22T01:25:17.309Z,3.40
2018-08-22T01:27:43.675Z,3.40
2018-08-22T01:30:10.088Z,3.90
2018-08-22T01:32:36.475Z,3.70
2018-08-22T01:35:02.844Z,4.20
2018-08-22T01:37:29.205Z,4.13
2018-08-22T01:39:55.565Z,3.20
2018-08-22T01:42:21.934Z,3.87
2018-08-22T01:44:48.329Z,3.57
2018-08-22T01:47:14.761Z,3.60
2018-08-22T01:49:41.266Z,3.40
2018-08-22T01:52:07.677Z,3.67
2018-08-22T01:54:34.006Z,3.20
2018-08-22T01:57:00.370Z,3.63
2018-08-22T01:59:26.697Z,3.90
2018-08-22T02:01:53.072Z,3.63
2018-08-22T02:04:19.405Z,3.27
2018-08-22T02:06:45.790Z,3.50
2018-08-22T02:09:12.111Z,3.83
2018-08-22T02:11:38.417Z,4.13
2018-08-22T02:14:04.747Z,4.47
2018-08-22T02:16:31.106Z,3.60
2018-08-22T02:18:57.482Z,3.97
2018-08-22T02:21:23.811Z,4.23
2018-08-22T02:23:50.185Z,3.60
2018-08-22T02:26:16.502Z,3.83
2018-08-22T02:28:42.832Z,3.43
2018-08-22T02:31:09.203Z,4.00
2018-08-22T02:33:35.591Z,3.90
2018-08-22T02:36:01.979Z,3.70
2018-08-22T02:38:28.326Z,3.80
2018-08-22T02:40:54.688Z,3.90
2018-08-22T02:43:21.023Z,3.30
2018-08-22T02:45:47.358Z,3.70
2018-08-22T02:48:13.682Z,3.87
2018-08-22T02:50:40.006Z,3.53
2018-08-22T02:53:06.342Z,4.13
2018-08-22T02:55:32.680Z,3.63
2018-08-22T02:57:59.006Z,3.67
2018-08-22T03:00:25.441Z,3.83
2018-08-22T03:02:51.798Z,3.60
2018-08-22T03:05:18.129Z,4.10
2018-08-22T03:07:44.470Z,3.43
2018-08-22T03:10:10.871Z,3.93
2018-08-22T03:12:37.282Z,3.53
2018-08-22T03:15:03.644Z,3.47
2018-08-22T03:17:29.969Z,3.37
2018-08-22T03:19:56.290Z,3.37
2018-08-22T03:22:22.723Z,3.60
2018-08-22T03:24:49.115Z,3.50
2018-08-22T03:27:15.480Z,3.77
2018-08-22T03:29:41.811Z,3.93
2018-08-22T03:32:08.127Z,4.00
2018-08-22T03:34:34.725Z,4.20
2018-08-22T03:37:01.209Z,3.90
2018-08-22T03:39:27.636Z,3.93
2018-08-22T03:41:54.064Z,3.67
2018-08-22T03:44:20.451Z,3.80
2018-08-22T03:46:46.845Z,3.73
2018-08-22T03:49:13.183Z,3.80
2018-08-22T03:51:39.610Z,4.00
2018-08-22T03:54:06.120Z,4.00
2018-08-22T03:56:32.486Z,4.47
2018-08-22T03:58:58.957Z,3.80
2018-08-22T04:01:25.547Z,4.40
2018-08-22T04:03:51.980Z,4.10
2018-08-22T04:06:18.388Z,4.30
2018-08-22T04:08:44.728Z,4.10
2018-08-22T04:11:11.055Z,3.83
2018-08-22T04:13:37.439Z,4.00
2018-08-22T04:16:03.805Z,3.93
2018-08-22T04:18:30.251Z,3.77
2018-08-22T04:20:56.590Z,3.57
2018-08-22T04:23:22.972Z,4.30
2018-08-22T04:25:49.371Z,4.63
2018-08-22T04:28:15.726Z,3.50
2018-08-22T04:30:42.045Z,4.03
2018-08-22T04:33:08.377Z,3.53
2018-08-22T04:35:34.749Z,4.20
2018-08-22T04:38:01.101Z,4.30
2018-08-22T04:40:27.555Z,3.90
2018-08-22T04:42:53.882Z,4.10
2018-08-22T04:45:20.244Z,4.03
2018-08-22T04:47:46.587Z,3.70
2018-08-22T04:50:12.907Z,3.50
2018-08-22T04:52:39.276Z,3.70
2018-08-22T04:55:05.610Z,3.83
2018-08-22T04:57:31.973Z,3.67
2018-08-22T04:59:58.402Z,4.10
2018-08-22T05:02:24.767Z,4.30
2018-08-22T05:04:51.165Z,4.40
2018-08-22T05:07:17.496Z,3.60
2018-08-22T05:09:43.815Z,4.30
2018-08-22T05:12:10.195Z,4.40
2018-08-22T05:14:36.527Z,4.20
2018-08-22T05:17:02.886Z,3.57
2018-08-22T05:19:29.222Z,3.87
2018-08-22T05:21:55.655Z,3.80
2018-08-22T05:24:22.014Z,4.00
2018-08-22T05:26:48.377Z,4.40
2018-08-22T05:29:14.733Z,4.30
2018-08-22T05:31:41.109Z,4.40
2018-08-22T05:34:07.466Z,3.80
2018-08-22T05:36:33.809Z,3.87
2018-08-22T05:39:00.203Z,3.93
2018-08-22T05:41:26.552Z,4.03
2018-08-22T05:43:52.974Z,4.30
2018-08-22T05:46:19.297Z,3.90
2018-08-22T05:48:45.718Z,5.43
2018-08-22T05:51:12.091Z,4.43
2018-08-22T05:53:38.451Z,4.40
2018-08-22T05:56:04.829Z,4.50
2018-08-22T05:58:31.254Z,4.87
2018-08-22T06:00:57.652Z,4.33
2018-08-22T06:03:24.059Z,4.80
2018-08-22T06:05:50.414Z,4.40
2018-08-22T06:08:16.784Z,4.10
2018-08-22T06:10:43.223Z,4.10
2018-08-22T06:13:09.578Z,4.30
2018-08-22T06:15:35.965Z,4.70
2018-08-22T06:18:02.321Z,4.10
2018-08-22T06:20:28.722Z,4.27
2018-08-22T06:22:55.078Z,4.37
2018-08-22T06:25:21.514Z,4.20
2018-08-22T06:27:47.943Z,3.87
2018-08-22T06:30:14.355Z,4.33
2018-08-22T06:32:40.814Z,4.00
2018-08-22T06:35:07.238Z,4.23
2018-08-22T06:37:33.784Z,4.03
2018-08-22T06:40:00.170Z,4.40
2018-08-22T06:42:26.542Z,4.50
2018-08-22T06:44:52.975Z,4.50
2018-08-22T06:47:19.508Z,4.57
2018-08-22T06:49:45.908Z,5.03
2018-08-22T06:52:12.243Z,4.77
2018-08-22T06:54:38.607Z,4.70
2018-08-22T06:57:05.002Z,4.13
2018-08-22T06:59:31.372Z,4.70
2018-08-22T07:01:57.800Z,4.40
2018-08-22T07:04:24.163Z,4.90
2018-08-22T07:06:50.622Z,4.80
2018-08-22T07:09:17.173Z,4.30
2018-08-22T07:11:44.007Z,4.60
2018-08-22T07:14:10.426Z,4.70
2018-08-22T07:16:36.812Z,4.80
2018-08-22T07:19:03.140Z,4.83
2018-08-22T07:21:29.490Z,4.47
2018-08-22T07:23:55.905Z,4.70
2018-08-22T07:26:22.338Z,4.13
2018-08-22T07:28:48.671Z,4.83
2018-08-22T07:31:15.060Z,4.63
2018-08-22T07:33:41.421Z,4.17
2018-08-22T07:36:07.827Z,4.73
2018-08-22T07:38:34.178Z,6.00
2018-08-22T07:41:00.586Z,4.87
2018-08-22T07:43:27.024Z,4.83
2018-08-22T07:45:53.415Z,4.70
2018-08-22T07:48:19.790Z,5.20
2018-08-22T07:50:46.162Z,4.07
2018-08-22T07:53:12.574Z,4.97
2018-08-22T07:55:38.932Z,5.00
2018-08-22T07:58:05.331Z,5.07
2018-08-22T08:00:31.702Z,4.90
2018-08-22T08:02:58.081Z,5.37
2018-08-22T08:05:24.461Z,4.50
2018-08-22T08:07:50.822Z,4.70
2018-08-22T08:10:17.336Z,5.10
2018-08-22T08:12:43.701Z,4.97
2018-08-22T08:15:10.129Z,4.57
2018-08-22T08:17:36.511Z,4.80
2018-08-22T08:20:02.960Z,5.70
2018-08-22T08:22:29.385Z,4.73
2018-08-22T08:24:55.722Z,5.00
2018-08-22T08:27:22.173Z,4.93
2018-08-22T08:29:48.581Z,4.87
2018-08-22T08:32:14.972Z,4.63
2018-08-22T08:34:41.377Z,4.67
2018-08-22T08:37:07.879Z,4.77
2018-08-22T08:39:34.258Z,4.67
2018-08-22T08:42:00.746Z,5.40
2018-08-22T08:44:27.121Z,5.00
2018-08-22T08:46:53.579Z,4.97
2018-08-22T08:49:20.012Z,4.70
2018-08-22T08:51:46.476Z,5.10
2018-08-22T08:54:12.852Z,4.63
2018-08-22T08:56:39.342Z,5.00
2018-08-22T08:59:05.800Z,5.00
2018-08-22T09:01:32.204Z,4.60
2018-08-22T09:03:58.681Z,5.10
2018-08-22T09:06:25.023Z,4.67
2018-08-22T09:08:51.508Z,4.87
2018-08-22T09:11:17.997Z,4.63
2018-08-22T09:13:44.587Z,5.40
2018-08-22T09:16:11.003Z,5.30
2018-08-22T09:18:37.383Z,5.93
2018-08-22T09:21:03.807Z,5.50
2018-08-22T09:23:30.194Z,5.47
2018-08-22T09:25:57.280Z,5.60
2018-08-22T09:28:23.660Z,4.90
2018-08-22T09:30:50.042Z,4.80
2018-08-22T09:33:16.555Z,4.80
2018-08-22T09:35:42.999Z,5.13
2018-08-22T09:38:09.414Z,5.00
2018-08-22T09:40:35.810Z,5.17
2018-08-22T09:43:02.288Z,5.20
2018-08-22T09:45:28.823Z,5.20
2018-08-22T09:47:55.170Z,4.80
2018-08-22T09:50:21.520Z,5.03
2018-08-22T09:52:47.909Z,5.73
2018-08-22T09:55:14.266Z,5.40
2018-08-22T09:57:40.656Z,4.57
2018-08-22T10:00:07.127Z,5.70
2018-08-22T10:02:33.496Z,4.93
2018-08-22T10:04:59.879Z,5.03
2018-08-22T10:07:26.357Z,5.60
2018-08-22T10:09:52.680Z,4.90
2018-08-22T10:12:19.207Z,6.10
2018-08-22T10:14:45.589Z,5.70
2018-08-22T10:17:11.951Z,4.63
2018-08-22T10:19:38.474Z,5.10
2018-08-22T10:22:05.376Z,5.40
2018-08-22T10:24:31.779Z,4.97
2018-08-22T10:26:58.244Z,5.40
2018-08-22T10:29:24.666Z,4.80
2018-08-22T10:31:51.053Z,4.57
2018-08-22T10:34:17.489Z,5.10
2018-08-22T10:36:43.990Z,5.10
2018-08-22T10:39:10.355Z,4.63
2018-08-22T10:41:36.839Z,5.33
2018-08-22T10:44:03.191Z,5.00
2018-08-22T10:46:29.585Z,4.63
2018-08-22T10:48:55.987Z,4.57
2018-08-22T10:51:22.417Z,5.13
2018-08-22T10:53:48.826Z,4.60
2018-08-22T10:56:15.231Z,4.90
2018-08-22T10:58:41.717Z,4.90
2018-08-22T11:01:08.080Z,4.63
2018-08-22T11:03:34.478Z,5.07
2018-08-22T11:06:00.877Z,4.87
2018-08-22T11:08:27.719Z,4.50
2018-08-22T11:10:54.112Z,5.00
2018-08-22T11:13:20.521Z,4.40
2018-08-22T11:15:46.942Z,5.10
2018-08-22T11:18:13.316Z,4.73
2018-08-22T11:20:39.726Z,5.70
2018-08-22T11:23:06.183Z,4.70
2018-08-22T11:25:32.637Z,4.93
2018-08-22T11:27:59.019Z,5.27
2018-08-22T11:30:25.415Z,4.57
2018-08-22T11:32:51.828Z,4.87
2018-08-22T11:35:18.337Z,4.57
2018-08-22T11:37:44.849Z,4.63
2018-08-22T11:40:11.240Z,5.30
2018-08-22T11:42:37.641Z,4.60
2018-08-22T11:45:04.000Z,4.50
2018-08-22T11:47:30.554Z,4.40
2018-08-22T11:49:56.916Z,4.67
2018-08-22T11:52:23.308Z,4.87
2018-08-22T11:54:49.654Z,4.87
2018-08-22T11:57:16.092Z,5.03
2018-08-22T11:59:42.533Z,6.10
2018-08-22T12:02:08.948Z,4.67
2018-08-22T12:04:35.375Z,4.80
2018-08-22T12:07:03.619Z,4.53
2018-08-22T12:09:30.101Z,5.27
2018-08-22T12:11:56.479Z,4.80
2018-08-22T12:14:22.834Z,4.97
2018-08-22T12:16:49.277Z,4.70
2018-08-22T12:19:15.623Z,4.70
2018-08-22T12:21:41.973Z,5.00
2018-08-22T12:24:08.329Z,5.17
2018-08-22T12:26:34.711Z,4.70
2018-08-22T12:29:01.184Z,5.47
2018-08-22T12:31:27.595Z,4.80
2018-08-22T12:33:53.927Z,5.47
2018-08-22T12:36:20.289Z,5.00
2018-08-22T12:38:49.604Z,5.20
2018-08-22T12:41:16.196Z,4.40
2018-08-22T12:43:42.626Z,4.93
2018-08-22T12:46:08.957Z,4.63
2018-08-22T12:48:35.391Z,5.30
2018-08-22T12:51:01.767Z,4.50
2018-08-22T12:53:28.120Z,4.70
2018-08-22T12:55:54.616Z,4.90
2018-08-22T12:58:20.987Z,5.10
2018-08-22T13:00:47.454Z,5.20
2018-08-22T13:03:13.984Z,4.97
2018-08-22T13:05:40.558Z,5.13
2018-08-22T13:08:07.012Z,5.03
2018-08-22T13:10:33.421Z,5.60
2018-08-22T13:12:59.782Z,4.50
2018-08-22T13:15:26.296Z,5.00
2018-08-22T13:17:52.656Z,4.50
2018-08-22T13:20:19.142Z,4.70
2018-08-22T13:22:45.504Z,5.20
2018-08-22T13:25:11.877Z,5.60
2018-08-22T13:27:38.244Z,4.80
2018-08-22T13:30:04.731Z,5.27
2018-08-22T13:32:31.199Z,4.87
2018-08-22T13:34:57.606Z,5.00
2018-08-22T13:37:24.148Z,5.20
2018-08-22T13:39:50.592Z,4.90
2018-08-22T13:42:17.107Z,5.10
2018-08-22T13:44:43.443Z,5.10
2018-08-22T13:47:09.816Z,4.00
2018-08-22T13:49:36.202Z,4.97
2018-08-22T13:52:02.639Z,4.87
2018-08-22T13:54:29.178Z,4.80
2018-08-22T13:56:55.535Z,5.37
2018-08-22T13:59:23.004Z,5.10
2018-08-22T14:01:49.462Z,5.07
2018-08-22T14:04:17.467Z,5.53
2018-08-22T14:06:43.816Z,5.30
2018-08-22T14:09:10.243Z,5.80
2018-08-22T14:11:36.571Z,4.90
2018-08-22T14:14:02.996Z,4.77
2018-08-22T14:16:30.000Z,5.10
2018-08-22T14:18:56.387Z,4.83
2018-08-22T14:21:22.751Z,5.63
2018-08-22T14:23:49.118Z,5.70
2018-08-22T14:26:15.493Z,5.40
2018-08-22T14:28:41.852Z,5.00
2018-08-22T14:31:08.227Z,5.27
2018-08-22T14:33:34.668Z,4.80
2018-08-22T14:36:01.022Z,5.70
2018-08-22T14:38:27.439Z,5.10
2018-08-22T14:40:53.792Z,4.63
2018-08-22T14:43:20.174Z,5.23
2018-08-22T14:45:46.531Z,4.33
2018-08-22T14:48:12.901Z,4.50
2018-08-22T14:50:39.304Z,5.00
2018-08-22T14:53:05.651Z,4.80
2018-08-22T14:55:32.051Z,5.17
2018-08-22T14:57:58.531Z,5.03
2018-08-22T15:00:24.907Z,4.93
2018-08-22T15:02:51.518Z,4.80
2018-08-22T15:05:17.622Z,4.77
2018-08-22T15:07:43.959Z,4.50
2018-08-22T15:10:10.382Z,5.10
2018-08-22T15:12:36.808Z,4.90
2018-08-22T15:15:03.128Z,4.30
2018-08-22T15:17:29.517Z,4.43
2018-08-22T15:19:55.927Z,4.43
2018-08-22T15:22:22.282Z,5.27
2018-08-22T15:24:48.618Z,4.03
2018-08-22T15:27:14.979Z,4.60
2018-08-22T15:29:41.521Z,4.53
2018-08-22T15:32:07.977Z,4.50
2018-08-22T15:34:34.307Z,4.80
2018-08-22T15:37:01.460Z,5.00
2018-08-22T15:39:27.822Z,4.83
2018-08-22T15:41:54.185Z,4.93
2018-08-22T15:44:20.631Z,4.97
2018-08-22T15:46:47.024Z,4.87
2018-08-22T15:49:13.419Z,4.10
2018-08-22T15:51:39.840Z,4.50
2018-08-22T15:54:06.280Z,4.70
2018-08-22T15:56:32.646Z,4.43
2018-08-22T15:58:59.100Z,4.90
2018-08-22T16:01:25.577Z,4.60
2018-08-22T16:03:52.011Z,4.20
2018-08-22T16:06:18.549Z,4.43
2018-08-22T16:08:44.928Z,4.80
2018-08-22T16:11:11.311Z,4.57
2018-08-22T16:13:37.677Z,5.20
2018-08-22T16:16:04.127Z,4.90
2018-08-22T16:18:30.610Z,4.60
2018-08-22T16:20:57.053Z,4.47
2018-08-22T16:23:23.416Z,4.67
2018-08-22T16:25:49.776Z,4.73
2018-08-22T16:28:16.280Z,4.60
2018-08-22T16:30:42.717Z,4.23
2018-08-22T16:33:09.024Z,5.00
2018-08-22T16:35:35.437Z,4.37
2018-08-22T16:38:01.815Z,4.60
2018-08-22T16:40:28.165Z,4.40
2018-08-22T16:42:54.547Z,4.43
2018-08-22T16:45:21.085Z,4.20
2018-08-22T16:47:47.470Z,4.20
2018-08-22T16:50:13.944Z,4.70
2018-08-22T16:52:40.304Z,4.53
2018-08-22T16:55:06.670Z,4.40
2018-08-22T16:57:33.028Z,4.60
2018-08-22T16:59:59.443Z,4.40
2018-08-22T17:02:25.971Z,4.27
2018-08-22T17:04:52.430Z,4.60
2018-08-22T17:07:18.829Z,4.30
2018-08-22T17:09:45.161Z,4.43
2018-08-22T17:12:11.511Z,4.90
2018-08-22T17:14:37.838Z,4.10
2018-08-22T17:17:04.200Z,4.70
2018-08-22T17:19:30.687Z,4.73
2018-08-22T17:21:57.086Z,4.30
2018-08-22T17:24:23.429Z,4.90
2018-08-22T17:26:49.779Z,4.63
2018-08-22T17:29:16.135Z,4.30
2018-08-22T17:31:42.463Z,4.90
2018-08-22T17:34:08.843Z,4.53
2018-08-22T17:36:35.269Z,4.23
2018-08-22T17:39:01.651Z,4.60
2018-08-22T17:41:27.974Z,4.90
2018-08-22T17:43:54.413Z,4.33
2018-08-22T17:46:20.785Z,5.27
2018-08-22T17:48:47.113Z,4.27
2018-08-22T17:51:13.487Z,4.47
2018-08-22T17:53:39.879Z,4.50
2018-08-22T17:56:06.239Z,4.37
2018-08-22T17:58:32.632Z,4.30
2018-08-22T18:00:58.967Z,4.60
2018-08-22T18:03:25.322Z,4.20
2018-08-22T18:05:51.769Z,4.87
2018-08-22T18:08:18.120Z,5.13
2018-08-22T18:10:44.538Z,4.63
2018-08-22T18:13:10.882Z,4.70
2018-08-22T18:15:37.269Z,4.47
2018-08-22T18:18:03.626Z,4.30
2018-08-22T18:20:30.020Z,4.57
2018-08-22T18:22:56.373Z,4.27
2018-08-22T18:25:22.713Z,4.63
2018-08-22T18:27:49.065Z,4.30
2018-08-22T18:30:15.443Z,4.40
2018-08-22T18:32:41.877Z,4.40
2018-08-22T18:35:08.293Z,4.27
2018-08-22T18:37:34.744Z,4.80
2018-08-22T18:40:01.103Z,4.53
2018-08-22T18:42:27.491Z,4.00
2018-08-22T18:44:53.854Z,4.60
2018-08-22T18:47:20.203Z,4.30
2018-08-22T18:49:46.551Z,4.73
2018-08-22T18:52:12.882Z,4.50
2018-08-22T18:54:39.264Z,4.70
2018-08-22T18:57:05.597Z,4.83
2018-08-22T18:59:31.976Z,4.67
2018-08-22T19:01:58.364Z,4.27
2018-08-22T19:04:24.720Z,4.37
2018-08-22T19:06:51.068Z,4.30
2018-08-22T19:09:17.419Z,4.83
2018-08-22T19:11:43.846Z,4.53
2018-08-22T19:14:10.227Z,4.50
2018-08-22T19:16:36.576Z,4.60
2018-08-22T19:19:02.928Z,5.00
2018-08-22T19:21:29.276Z,5.00
2018-08-22T19:23:55.647Z,4.80
2018-08-22T19:26:22.034Z,5.13
2018-08-22T19:28:48.421Z,4.80
2018-08-22T19:31:14.855Z,4.47
2018-08-22T19:33:41.204Z,4.50
2018-08-22T19:36:07.533Z,4.57
2018-08-22T19:38:33.938Z,4.73
2018-08-22T19:41:00.293Z,5.23
2018-08-22T19:43:26.647Z,4.70
2018-08-22T19:45:53.006Z,5.20
2018-08-22T19:48:19.336Z,4.83
2018-08-22T19:50:45.700Z,4.80
2018-08-22T19:53:12.131Z,4.87
2018-08-22T19:55:38.487Z,4.70
2018-08-22T19:58:04.820Z,5.03
2018-08-22T20:00:31.227Z,4.80
2018-08-22T20:02:57.623Z,5.47
2018-08-22T20:05:24.012Z,5.00
2018-08-22T20:07:50.365Z,4.80
2018-08-22T20:10:16.716Z,4.70
2018-08-22T20:12:43.084Z,5.10
2018-08-22T20:15:09.434Z,5.00
2018-08-22T20:17:35.849Z,5.60
2018-08-22T20:20:02.218Z,4.77
2018-08-22T20:22:28.573Z,5.47
2018-08-22T20:24:54.937Z,5.17
2018-08-22T20:27:21.374Z,5.23
2018-08-22T20:29:47.807Z,4.80
2018-08-22T20:32:14.415Z,5.10
2018-08-22T20:34:40.781Z,5.03
2018-08-22T20:37:07.229Z,4.83
2018-08-22T20:39:33.604Z,5.47
2018-08-22T20:41:59.954Z,5.10
2018-08-22T20:44:26.428Z,4.70
2018-08-22T20:46:52.818Z,5.27
2018-08-22T20:49:19.177Z,4.93
2018-08-22T20:51:45.528Z,4.90
2018-08-22T20:54:11.856Z,4.80
2018-08-22T20:56:38.186Z,5.30
2018-08-22T20:59:04.516Z,5.43
2018-08-22T21:01:30.877Z,5.23
2018-08-22T21:03:57.262Z,5.20
2018-08-22T21:06:23.615Z,4.57
2018-08-22T21:08:49.960Z,5.10
2018-08-22T21:11:16.338Z,4.97
2018-08-22T21:13:42.665Z,5.20
2018-08-22T21:16:09.034Z,5.07
2018-08-22T21:18:35.476Z,5.10
2018-08-22T21:21:01.824Z,5.10
2018-08-22T21:23:28.156Z,5.33
2018-08-22T21:25:54.512Z,4.83
2018-08-22T21:28:20.988Z,5.13
2018-08-22T21:30:47.367Z,5.13
2018-08-22T21:33:13.757Z,4.77
2018-08-22T21:35:40.131Z,4.70
2018-08-22T21:38:06.540Z,5.40
2018-08-22T21:40:32.882Z,4.83
2018-08-22T21:42:59.252Z,5.00
2018-08-22T21:45:25.593Z,5.13
2018-08-22T21:47:51.955Z,5.00
2018-08-22T21:50:18.349Z,5.50
2018-08-22T21:52:44.706Z,4.90
2018-08-22T21:55:11.068Z,5.03
2018-08-22T21:57:37.543Z,5.00
2018-08-22T22:00:03.923Z,5.60
2018-08-22T22:02:30.280Z,5.20
2018-08-22T22:04:56.753Z,5.13
2018-08-22T22:07:23.148Z,5.37
2018-08-22T22:09:49.549Z,5.37
2018-08-22T22:12:15.987Z,5.07
2018-08-22T22:14:42.345Z,5.00
2018-08-22T22:17:08.925Z,4.87
2018-08-22T22:19:35.330Z,4.80
2018-08-22T22:22:01.774Z,5.60
2018-08-22T22:24:28.237Z,4.90
2018-08-22T22:26:54.631Z,5.00
2018-08-22T22:29:21.077Z,5.27
2018-08-22T22:31:47.607Z,4.70
2018-08-22T22:34:13.981Z,5.37
2018-08-22T22:36:40.506Z,4.80
2018-08-22T22:39:07.040Z,4.70
2018-08-22T22:41:33.412Z,5.33
2018-08-22T22:44:00.005Z,5.70
2018-08-22T22:46:26.455Z,5.43
2018-08-22T22:48:53.042Z,5.07
2018-08-22T22:51:19.378Z,4.83
2018-08-22T22:53:45.779Z,5.20
2018-08-22T22:56:12.177Z,4.80
2018-08-22T22:58:38.604Z,5.03
2018-08-22T23:01:05.036Z,5.00
2018-08-22T23:03:31.417Z,4.57
2018-08-22T23:05:57.881Z,4.77
2018-08-22T23:08:24.342Z,5.20
2018-08-22T23:10:50.797Z,5.50
2018-08-22T23:13:17.265Z,5.00
2018-08-22T23:15:43.654Z,4.30
2018-08-22T23:18:10.040Z,5.30
2018-08-22T23:20:36.512Z,5.83
2018-08-22T23:23:02.892Z,4.70
2018-08-22T23:25:29.304Z,4.53
2018-08-22T23:27:55.812Z,4.10
2018-08-22T23:30:22.234Z,4.60
2018-08-22T23:32:48.704Z,5.27
2018-08-22T23:35:15.124Z,5.00
2018-08-22T23:37:41.496Z,4.57
2018-08-22T23:40:08.069Z,4.70
2018-08-22T23:42:34.431Z,4.30
2018-08-22T23:45:00.862Z,5.10
2018-08-22T23:47:27.387Z,4.60
2018-08-22T23:49:53.843Z,4.53
2018-08-22T23:52:20.263Z,4.60
2018-08-22T23:54:46.622Z,4.47
2018-08-22T23:57:13.062Z,4.70
2018-08-22T23:59:39.496Z,4.63
